Terminal Aerodrome Forecast
Issued by NWS Twin Cities, MN

Home | Current Version | Previous Version | Graphics & Text | Print | Product List | Glossary On
Versions: 1 2 3 4 5 6 7 8 9 10 11 12 13 14 15 16 17 18 19
000
FTUS43 KMPX 280520
TAFSTC
TAF
KSTC 280520Z 2806/2906 17005KT 6SM BR SCT020
     FM281200 36008KT P6SM SCT035
     FM281500 35013G20KT P6SM SCT030 BKN050
     FM290100 33008KT P6SM SCT050=

USA.gov is the U.S. government's official web portal to all federal, state and local government web resources and services.